sensor_id;sensor_type;location;lat;lon;timestamp;P1;durP1;ratioP1;P2;durP2;ratioP2
35442;SDS011;21561;55.654;37.592;2023-07-24T00:00:34;13.48;;;3.83;;
35442;SDS011;21561;55.654;37.592;2023-07-24T00:03:02;10.88;;;3.17;;
35442;SDS011;21561;55.654;37.592;2023-07-24T00:05:29;7.93;;;3.20;;
35442;SDS011;21561;55.654;37.592;2023-07-24T00:07:56;10.07;;;3.15;;
35442;SDS011;21561;55.654;37.592;2023-07-24T00:10:23;10.23;;;3.33;;
35442;SDS011;21561;55.654;37.592;2023-07-24T00:12:51;11.68;;;3.65;;
35442;SDS011;21561;55.654;37.592;2023-07-24T00:15:18;9.38;;;3.20;;
35442;SDS011;21561;55.654;37.592;2023-07-24T00:17:45;9.48;;;3.22;;
35442;SDS011;21561;55.654;37.592;2023-07-24T00:20:12;9.38;;;3.60;;
35442;SDS011;21561;55.654;37.592;2023-07-24T00:22:39;11.57;;;3.50;;
35442;SDS011;21561;55.654;37.592;2023-07-24T00:25:07;11.85;;;3.92;;
35442;SDS011;21561;55.654;37.592;2023-07-24T00:27:35;9.98;;;3.42;;
35442;SDS011;21561;55.654;37.592;2023-07-24T00:30:02;9.88;;;3.38;;
35442;SDS011;21561;55.654;37.592;2023-07-24T00:32:32;10.70;;;3.60;;
35442;SDS011;21561;55.654;37.592;2023-07-24T00:34:59;8.80;;;3.42;;
35442;SDS011;21561;55.654;37.592;2023-07-24T00:37:25;10.10;;;3.75;;
35442;SDS011;21561;55.654;37.592;2023-07-24T00:39:52;9.50;;;3.72;;
35442;SDS011;21561;55.654;37.592;2023-07-24T00:42:19;10.63;;;3.58;;
35442;SDS011;21561;55.654;37.592;2023-07-24T00:44:46;10.70;;;3.65;;
35442;SDS011;21561;55.654;37.592;2023-07-24T00:47:13;9.50;;;3.50;;
35442;SDS011;21561;55.654;37.592;2023-07-24T00:49:40;9.88;;;3.47;;
35442;SDS011;21561;55.654;37.592;2023-07-24T00:52:07;9.45;;;3.53;;
35442;SDS011;21561;55.654;37.592;2023-07-24T00:54:34;12.05;;;3.42;;
35442;SDS011;21561;55.654;37.592;2023-07-24T00:57:02;10.25;;;3.38;;
35442;SDS011;21561;55.654;37.592;2023-07-24T00:59:30;11.98;;;3.65;;
35442;SDS011;21561;55.654;37.592;2023-07-24T01:01:58;11.57;;;3.38;;
35442;SDS011;21561;55.654;37.592;2023-07-24T01:04:25;9.43;;;3.28;;
35442;SDS011;21561;55.654;37.592;2023-07-24T01:06:52;11.60;;;3.70;;
35442;SDS011;21561;55.654;37.592;2023-07-24T01:09:20;12.52;;;3.67;;
35442;SDS011;21561;55.654;37.592;2023-07-24T01:11:47;10.15;;;3.47;;
35442;SDS011;21561;55.654;37.592;2023-07-24T01:14:44;11.40;;;3.85;;
35442;SDS011;21561;55.654;37.592;2023-07-24T01:17:17;11.68;;;3.83;;
35442;SDS011;21561;55.654;37.592;2023-07-24T01:19:52;11.43;;;3.80;;
35442;SDS011;21561;55.654;37.592;2023-07-24T01:27:39;9.52;;;3.17;;
35442;SDS011;21561;55.654;37.592;2023-07-24T01:30:08;9.23;;;3.30;;
35442;SDS011;21561;55.654;37.592;2023-07-24T01:32:36;10.63;;;3.58;;
35442;SDS011;21561;55.654;37.592;2023-07-24T01:35:03;11.68;;;3.22;;
35442;SDS011;21561;55.654;37.592;2023-07-24T01:37:31;9.20;;;3.30;;
35442;SDS011;21561;55.654;37.592;2023-07-24T01:40:01;8.00;;;3.33;;
35442;SDS011;21561;55.654;37.592;2023-07-24T01:42:29;11.27;;;3.53;;
35442;SDS011;21561;55.654;37.592;2023-07-24T01:44:57;12.05;;;3.50;;
35442;SDS011;21561;55.654;37.592;2023-07-24T01:47:23;12.15;;;3.67;;
35442;SDS011;21561;55.654;37.592;2023-07-24T01:49:51;9.85;;;3.20;;
35442;SDS011;21561;55.654;37.592;2023-07-24T01:52:18;12.80;;;4.03;;
35442;SDS011;21561;55.654;37.592;2023-07-24T01:54:44;12.05;;;3.90;;
35442;SDS011;21561;55.654;37.592;2023-07-24T01:57:11;13.30;;;3.75;;
35442;SDS011;21561;55.654;37.592;2023-07-24T01:59:38;13.23;;;4.20;;
35442;SDS011;21561;55.654;37.592;2023-07-24T02:02:05;13.02;;;4.63;;
35442;SDS011;21561;55.654;37.592;2023-07-24T02:04:32;14.52;;;4.30;;
35442;SDS011;21561;55.654;37.592;2023-07-24T02:06:59;15.82;;;4.93;;
35442;SDS011;21561;55.654;37.592;2023-07-24T02:09:26;15.40;;;4.80;;
35442;SDS011;21561;55.654;37.592;2023-07-24T02:11:53;16.48;;;5.20;;
35442;SDS011;21561;55.654;37.592;2023-07-24T02:14:20;16.88;;;5.40;;
35442;SDS011;21561;55.654;37.592;2023-07-24T02:16:48;16.27;;;4.97;;
35442;SDS011;21561;55.654;37.592;2023-07-24T02:19:15;15.95;;;5.20;;
35442;SDS011;21561;55.654;37.592;2023-07-24T02:22:02;16.58;;;4.95;;
35442;SDS011;21561;55.654;37.592;2023-07-24T02:24:29;11.90;;;4.30;;
35442;SDS011;21561;55.654;37.592;2023-07-24T02:26:56;11.43;;;4.10;;
35442;SDS011;21561;55.654;37.592;2023-07-24T02:29:23;11.98;;;4.38;;
35442;SDS011;21561;55.654;37.592;2023-07-24T02:31:50;12.70;;;4.28;;
35442;SDS011;21561;55.654;37.592;2023-07-24T02:34:17;13.45;;;3.83;;
35442;SDS011;21561;55.654;37.592;2023-07-24T02:36:44;14.20;;;4.88;;
35442;SDS011;21561;55.654;37.592;2023-07-24T02:39:11;11.52;;;3.63;;
35442;SDS011;21561;55.654;37.592;2023-07-24T02:41:38;13.27;;;3.70;;
35442;SDS011;21561;55.654;37.592;2023-07-24T02:44:05;10.55;;;3.97;;
35442;SDS011;21561;55.654;37.592;2023-07-24T02:46:32;10.63;;;3.60;;
35442;SDS011;21561;55.654;37.592;2023-07-24T02:48:59;14.73;;;4.00;;
35442;SDS011;21561;55.654;37.592;2023-07-24T02:51:26;11.75;;;3.42;;
35442;SDS011;21561;55.654;37.592;2023-07-24T02:53:53;11.55;;;3.83;;
35442;SDS011;21561;55.654;37.592;2023-07-24T02:56:21;11.38;;;3.83;;
35442;SDS011;21561;55.654;37.592;2023-07-24T02:58:48;12.18;;;3.95;;
35442;SDS011;21561;55.654;37.592;2023-07-24T03:01:15;10.65;;;3.58;;
35442;SDS011;21561;55.654;37.592;2023-07-24T03:03:42;17.88;;;3.83;;
35442;SDS011;21561;55.654;37.592;2023-07-24T03:06:09;11.52;;;4.32;;
35442;SDS011;21561;55.654;37.592;2023-07-24T03:08:36;12.05;;;3.70;;
35442;SDS011;21561;55.654;37.592;2023-07-24T03:11:07;12.10;;;4.50;;
35442;SDS011;21561;55.654;37.592;2023-07-24T03:13:34;10.95;;;3.85;;
35442;SDS011;21561;55.654;37.592;2023-07-24T03:16:01;10.30;;;3.50;;
35442;SDS011;21561;55.654;37.592;2023-07-24T03:18:28;10.45;;;4.20;;
35442;SDS011;21561;55.654;37.592;2023-07-24T03:20:56;11.85;;;3.83;;
35442;SDS011;21561;55.654;37.592;2023-07-24T03:23:24;13.35;;;4.20;;
35442;SDS011;21561;55.654;37.592;2023-07-24T03:25:51;11.07;;;3.97;;
35442;SDS011;21561;55.654;37.592;2023-07-24T03:28:18;11.95;;;4.05;;
35442;SDS011;21561;55.654;37.592;2023-07-24T03:30:45;9.35;;;3.90;;
35442;SDS011;21561;55.654;37.592;2023-07-24T03:33:12;11.52;;;3.38;;
35442;SDS011;21561;55.654;37.592;2023-07-24T03:35:39;7.38;;;3.03;;
35442;SDS011;21561;55.654;37.592;2023-07-24T03:38:06;12.00;;;3.75;;
35442;SDS011;21561;55.654;37.592;2023-07-24T03:40:33;12.80;;;3.20;;
35442;SDS011;21561;55.654;37.592;2023-07-24T03:43:00;8.90;;;3.20;;
35442;SDS011;21561;55.654;37.592;2023-07-24T03:45:27;7.43;;;3.10;;
35442;SDS011;21561;55.654;37.592;2023-07-24T03:47:54;8.65;;;3.10;;
35442;SDS011;21561;55.654;37.592;2023-07-24T03:50:21;9.52;;;3.40;;
35442;SDS011;21561;55.654;37.592;2023-07-24T03:52:47;8.73;;;2.97;;
35442;SDS011;21561;55.654;37.592;2023-07-24T03:55:14;10.15;;;3.20;;
35442;SDS011;21561;55.654;37.592;2023-07-24T03:57:41;7.05;;;2.90;;
35442;SDS011;21561;55.654;37.592;2023-07-24T04:00:08;7.97;;;3.08;;
35442;SDS011;21561;55.654;37.592;2023-07-24T04:02:36;9.60;;;3.40;;
35442;SDS011;21561;55.654;37.592;2023-07-24T04:05:03;11.63;;;3.55;;
35442;SDS011;21561;55.654;37.592;2023-07-24T04:07:30;13.48;;;3.22;;
35442;SDS011;21561;55.654;37.592;2023-07-24T04:09:57;12.23;;;3.40;;
35442;SDS011;21561;55.654;37.592;2023-07-24T04:12:24;11.15;;;3.53;;
35442;SDS011;21561;55.654;37.592;2023-07-24T04:14:51;13.30;;;3.63;;
35442;SDS011;21561;55.654;37.592;2023-07-24T04:17:18;9.43;;;3.42;;
35442;SDS011;21561;55.654;37.592;2023-07-24T04:19:45;11.13;;;3.40;;
35442;SDS011;21561;55.654;37.592;2023-07-24T04:22:12;10.52;;;3.40;;
35442;SDS011;21561;55.654;37.592;2023-07-24T04:24:39;9.30;;;3.40;;
35442;SDS011;21561;55.654;37.592;2023-07-24T04:27:06;11.00;;;3.20;;
35442;SDS011;21561;55.654;37.592;2023-07-24T04:29:32;7.03;;;2.70;;
35442;SDS011;21561;55.654;37.592;2023-07-24T04:31:59;7.22;;;2.78;;
35442;SDS011;21561;55.654;37.592;2023-07-24T04:34:26;11.55;;;2.88;;
35442;SDS011;21561;55.654;37.592;2023-07-24T04:36:53;6.72;;;2.53;;
35442;SDS011;21561;55.654;37.592;2023-07-24T04:39:20;8.90;;;2.80;;
35442;SDS011;21561;55.654;37.592;2023-07-24T04:41:47;6.80;;;2.70;;
35442;SDS011;21561;55.654;37.592;2023-07-24T04:44:14;6.47;;;2.50;;
35442;SDS011;21561;55.654;37.592;2023-07-24T04:46:41;9.32;;;2.70;;
35442;SDS011;21561;55.654;37.592;2023-07-24T04:49:08;5.13;;;2.40;;
35442;SDS011;21561;55.654;37.592;2023-07-24T04:51:35;9.25;;;2.30;;
35442;SDS011;21561;55.654;37.592;2023-07-24T04:54:02;7.40;;;3.10;;
35442;SDS011;21561;55.654;37.592;2023-07-24T04:56:29;11.93;;;2.47;;
35442;SDS011;21561;55.654;37.592;2023-07-24T04:58:56;4.82;;;2.22;;
35442;SDS011;21561;55.654;37.592;2023-07-24T05:01:23;9.77;;;2.50;;
35442;SDS011;21561;55.654;37.592;2023-07-24T05:03:51;7.03;;;2.58;;
35442;SDS011;21561;55.654;37.592;2023-07-24T05:06:18;10.43;;;2.60;;
35442;SDS011;21561;55.654;37.592;2023-07-24T05:08:45;8.35;;;2.58;;
35442;SDS011;21561;55.654;37.592;2023-07-24T05:11:12;9.32;;;2.70;;
35442;SDS011;21561;55.654;37.592;2023-07-24T05:13:39;5.80;;;2.08;;
35442;SDS011;21561;55.654;37.592;2023-07-24T05:16:06;9.20;;;2.60;;
35442;SDS011;21561;55.654;37.592;2023-07-24T05:18:33;10.40;;;2.72;;
35442;SDS011;21561;55.654;37.592;2023-07-24T05:21:00;8.07;;;2.08;;
35442;SDS011;21561;55.654;37.592;2023-07-24T05:23:27;6.22;;;2.15;;
35442;SDS011;21561;55.654;37.592;2023-07-24T05:26:00;8.23;;;2.38;;
35442;SDS011;21561;55.654;37.592;2023-07-24T05:28:29;7.78;;;2.20;;
35442;SDS011;21561;55.654;37.592;2023-07-24T05:31:01;4.22;;;1.70;;
35442;SDS011;21561;55.654;37.592;2023-07-24T05:33:30;8.25;;;1.95;;
35442;SDS011;21561;55.654;37.592;2023-07-24T05:35:59;5.75;;;2.00;;
35442;SDS011;21561;55.654;37.592;2023-07-24T05:38:26;6.13;;;1.95;;
35442;SDS011;21561;55.654;37.592;2023-07-24T05:40:54;6.30;;;1.95;;
35442;SDS011;21561;55.654;37.592;2023-07-24T05:43:25;9.93;;;2.30;;
35442;SDS011;21561;55.654;37.592;2023-07-24T05:45:53;7.50;;;1.90;;
35442;SDS011;21561;55.654;37.592;2023-07-24T05:48:20;6.20;;;2.00;;
35442;SDS011;21561;55.654;37.592;2023-07-24T05:50:48;6.20;;;2.05;;
35442;SDS011;21561;55.654;37.592;2023-07-24T05:53:15;5.65;;;2.40;;
35442;SDS011;21561;55.654;37.592;2023-07-24T05:55:43;4.80;;;1.65;;
35442;SDS011;21561;55.654;37.592;2023-07-24T05:58:10;7.30;;;2.08;;
35442;SDS011;21561;55.654;37.592;2023-07-24T06:00:37;6.95;;;1.92;;
35442;SDS011;21561;55.654;37.592;2023-07-24T06:03:04;8.65;;;2.13;;
35442;SDS011;21561;55.654;37.592;2023-07-24T06:05:34;8.55;;;1.80;;
35442;SDS011;21561;55.654;37.592;2023-07-24T06:08:01;4.97;;;1.95;;
35442;SDS011;21561;55.654;37.592;2023-07-24T06:10:28;8.52;;;1.90;;
35442;SDS011;21561;55.654;37.592;2023-07-24T06:12:55;6.22;;;2.20;;
35442;SDS011;21561;55.654;37.592;2023-07-24T06:15:22;8.73;;;1.95;;
35442;SDS011;21561;55.654;37.592;2023-07-24T06:17:49;8.77;;;1.98;;
35442;SDS011;21561;55.654;37.592;2023-07-24T06:20:20;7.47;;;2.65;;
35442;SDS011;21561;55.654;37.592;2023-07-24T06:22:47;6.07;;;1.85;;
35442;SDS011;21561;55.654;37.592;2023-07-24T06:25:13;4.20;;;1.80;;
35442;SDS011;21561;55.654;37.592;2023-07-24T06:27:40;5.35;;;1.88;;
35442;SDS011;21561;55.654;37.592;2023-07-24T06:30:07;7.45;;;1.90;;
35442;SDS011;21561;55.654;37.592;2023-07-24T06:32:42;5.30;;;1.85;;
35442;SDS011;21561;55.654;37.592;2023-07-24T06:35:09;4.72;;;1.77;;
35442;SDS011;21561;55.654;37.592;2023-07-24T06:37:36;7.10;;;2.25;;
35442;SDS011;21561;55.654;37.592;2023-07-24T06:40:03;7.30;;;1.90;;
35442;SDS011;21561;55.654;37.592;2023-07-24T06:42:31;6.68;;;2.25;;
35442;SDS011;21561;55.654;37.592;2023-07-24T06:44:58;9.77;;;2.10;;
35442;SDS011;21561;55.654;37.592;2023-07-24T06:47:25;5.78;;;2.15;;
35442;SDS011;21561;55.654;37.592;2023-07-24T06:49:52;4.82;;;1.80;;
35442;SDS011;21561;55.654;37.592;2023-07-24T06:52:19;5.75;;;1.90;;
35442;SDS011;21561;55.654;37.592;2023-07-24T06:54:46;5.03;;;1.88;;
35442;SDS011;21561;55.654;37.592;2023-07-24T06:57:13;7.47;;;1.85;;
35442;SDS011;21561;55.654;37.592;2023-07-24T06:59:40;6.63;;;2.10;;
35442;SDS011;21561;55.654;37.592;2023-07-24T07:02:07;5.68;;;1.88;;
35442;SDS011;21561;55.654;37.592;2023-07-24T07:04:34;5.40;;;1.60;;
35442;SDS011;21561;55.654;37.592;2023-07-24T07:07:01;5.10;;;1.70;;
35442;SDS011;21561;55.654;37.592;2023-07-24T07:09:28;6.50;;;1.90;;
35442;SDS011;21561;55.654;37.592;2023-07-24T07:11:55;3.92;;;1.70;;
35442;SDS011;21561;55.654;37.592;2023-07-24T07:14:22;6.68;;;2.00;;
35442;SDS011;21561;55.654;37.592;2023-07-24T07:16:48;3.80;;;1.75;;
35442;SDS011;21561;55.654;37.592;2023-07-24T07:19:15;8.40;;;1.90;;
35442;SDS011;21561;55.654;37.592;2023-07-24T07:21:42;4.28;;;1.70;;
35442;SDS011;21561;55.654;37.592;2023-07-24T07:24:09;6.25;;;1.63;;
35442;SDS011;21561;55.654;37.592;2023-07-24T07:26:36;7.28;;;2.10;;
35442;SDS011;21561;55.654;37.592;2023-07-24T07:29:03;5.85;;;1.85;;
35442;SDS011;21561;55.654;37.592;2023-07-24T07:31:30;7.32;;;2.30;;
35442;SDS011;21561;55.654;37.592;2023-07-24T07:33:57;7.13;;;2.13;;
35442;SDS011;21561;55.654;37.592;2023-07-24T07:36:24;6.75;;;1.80;;
35442;SDS011;21561;55.654;37.592;2023-07-24T07:38:51;4.03;;;1.80;;
35442;SDS011;21561;55.654;37.592;2023-07-24T07:41:18;5.88;;;2.00;;
35442;SDS011;21561;55.654;37.592;2023-07-24T07:43:45;7.93;;;1.70;;
35442;SDS011;21561;55.654;37.592;2023-07-24T07:46:12;5.35;;;1.58;;
35442;SDS011;21561;55.654;37.592;2023-07-24T07:48:39;8.25;;;1.80;;
35442;SDS011;21561;55.654;37.592;2023-07-24T07:51:06;4.70;;;1.63;;
35442;SDS011;21561;55.654;37.592;2023-07-24T07:53:33;8.32;;;1.90;;
35442;SDS011;21561;55.654;37.592;2023-07-24T07:56:00;6.82;;;1.95;;
35442;SDS011;21561;55.654;37.592;2023-07-24T07:58:27;10.75;;;1.98;;
35442;SDS011;21561;55.654;37.592;2023-07-24T08:00:54;5.18;;;1.60;;
35442;SDS011;21561;55.654;37.592;2023-07-24T08:03:21;5.53;;;1.67;;
35442;SDS011;21561;55.654;37.592;2023-07-24T08:05:48;8.30;;;2.03;;
35442;SDS011;21561;55.654;37.592;2023-07-24T08:08:15;7.00;;;2.05;;
35442;SDS011;21561;55.654;37.592;2023-07-24T08:10:42;6.63;;;1.90;;
35442;SDS011;21561;55.654;37.592;2023-07-24T08:13:09;8.70;;;2.15;;
35442;SDS011;21561;55.654;37.592;2023-07-24T08:15:36;7.43;;;2.20;;
35442;SDS011;21561;55.654;37.592;2023-07-24T08:18:04;7.38;;;1.98;;
35442;SDS011;21561;55.654;37.592;2023-07-24T08:20:36;5.40;;;2.00;;
35442;SDS011;21561;55.654;37.592;2023-07-24T08:23:04;8.73;;;2.47;;
35442;SDS011;21561;55.654;37.592;2023-07-24T08:25:31;7.22;;;2.40;;
35442;SDS011;21561;55.654;37.592;2023-07-24T08:27:58;6.55;;;2.20;;
35442;SDS011;21561;55.654;37.592;2023-07-24T08:30:31;7.63;;;2.53;;
35442;SDS011;21561;55.654;37.592;2023-07-24T08:32:59;7.65;;;2.53;;
35442;SDS011;21561;55.654;37.592;2023-07-24T08:35:26;8.48;;;2.30;;
35442;SDS011;21561;55.654;37.592;2023-07-24T08:37:53;8.60;;;2.42;;
35442;SDS011;21561;55.654;37.592;2023-07-24T08:40:20;4.85;;;2.22;;
35442;SDS011;21561;55.654;37.592;2023-07-24T08:42:48;6.18;;;2.17;;
35442;SDS011;21561;55.654;37.592;2023-07-24T08:45:17;8.38;;;2.60;;
35442;SDS011;21561;55.654;37.592;2023-07-24T08:47:45;9.52;;;2.58;;
35442;SDS011;21561;55.654;37.592;2023-07-24T08:50:13;10.63;;;2.60;;
35442;SDS011;21561;55.654;37.592;2023-07-24T08:52:42;6.40;;;2.38;;
35442;SDS011;21561;55.654;37.592;2023-07-24T08:55:11;10.88;;;3.25;;
35442;SDS011;21561;55.654;37.592;2023-07-24T08:57:39;10.85;;;2.70;;
35442;SDS011;21561;55.654;37.592;2023-07-24T09:00:06;12.02;;;2.72;;
35442;SDS011;21561;55.654;37.592;2023-07-24T09:02:34;6.95;;;2.40;;
35442;SDS011;21561;55.654;37.592;2023-07-24T09:05:02;7.35;;;2.38;;
35442;SDS011;21561;55.654;37.592;2023-07-24T09:07:31;9.35;;;2.50;;
35442;SDS011;21561;55.654;37.592;2023-07-24T09:09:58;7.18;;;2.63;;
35442;SDS011;21561;55.654;37.592;2023-07-24T09:12:25;7.32;;;2.60;;
35442;SDS011;21561;55.654;37.592;2023-07-24T09:15:04;8.13;;;2.33;;
35442;SDS011;21561;55.654;37.592;2023-07-24T09:17:33;13.35;;;3.13;;
35442;SDS011;21561;55.654;37.592;2023-07-24T09:20:01;7.78;;;2.72;;
35442;SDS011;21561;55.654;37.592;2023-07-24T09:22:30;6.97;;;2.53;;
35442;SDS011;21561;55.654;37.592;2023-07-24T09:25:00;8.45;;;3.13;;
35442;SDS011;21561;55.654;37.592;2023-07-24T09:27:30;10.65;;;3.10;;
35442;SDS011;21561;55.654;37.592;2023-07-24T09:29:59;12.10;;;3.03;;
35442;SDS011;21561;55.654;37.592;2023-07-24T09:32:26;8.25;;;2.83;;
35442;SDS011;21561;55.654;37.592;2023-07-24T09:34:54;7.18;;;2.90;;
35442;SDS011;21561;55.654;37.592;2023-07-24T09:37:27;12.48;;;2.90;;
35442;SDS011;21561;55.654;37.592;2023-07-24T09:39:57;7.07;;;2.67;;
35442;SDS011;21561;55.654;37.592;2023-07-24T09:42:33;9.15;;;2.78;;
35442;SDS011;21561;55.654;37.592;2023-07-24T09:45:10;9.80;;;2.70;;
35442;SDS011;21561;55.654;37.592;2023-07-24T09:47:37;7.55;;;2.60;;
35442;SDS011;21561;55.654;37.592;2023-07-24T09:50:09;8.65;;;3.03;;
35442;SDS011;21561;55.654;37.592;2023-07-24T09:52:37;8.80;;;3.13;;
35442;SDS011;21561;55.654;37.592;2023-07-24T09:55:11;9.27;;;3.00;;
35442;SDS011;21561;55.654;37.592;2023-07-24T09:57:45;6.18;;;2.67;;
35442;SDS011;21561;55.654;37.592;2023-07-24T10:00:15;9.25;;;2.83;;
35442;SDS011;21561;55.654;37.592;2023-07-24T10:02:42;8.07;;;3.08;;
35442;SDS011;21561;55.654;37.592;2023-07-24T10:05:10;12.75;;;3.85;;
35442;SDS011;21561;55.654;37.592;2023-07-24T10:07:38;10.73;;;3.40;;
35442;SDS011;21561;55.654;37.592;2023-07-24T10:10:05;8.75;;;3.28;;
35442;SDS011;21561;55.654;37.592;2023-07-24T10:12:34;11.70;;;3.80;;
35442;SDS011;21561;55.654;37.592;2023-07-24T10:15:03;10.52;;;3.33;;
35442;SDS011;21561;55.654;37.592;2023-07-24T10:17:39;9.55;;;3.17;;
35442;SDS011;21561;55.654;37.592;2023-07-24T10:20:08;13.23;;;4.15;;
35442;SDS011;21561;55.654;37.592;2023-07-24T10:22:40;10.02;;;3.42;;
35442;SDS011;21561;55.654;37.592;2023-07-24T10:25:09;10.85;;;3.47;;
35442;SDS011;21561;55.654;37.592;2023-07-24T10:27:43;9.75;;;3.20;;
35442;SDS011;21561;55.654;37.592;2023-07-24T10:30:16;8.70;;;3.00;;
35442;SDS011;21561;55.654;37.592;2023-07-24T10:33:07;8.48;;;3.20;;
35442;SDS011;21561;55.654;37.592;2023-07-24T10:35:49;8.13;;;3.20;;
35442;SDS011;21561;55.654;37.592;2023-07-24T10:38:19;11.30;;;3.63;;
35442;SDS011;21561;55.654;37.592;2023-07-24T10:41:01;9.18;;;3.45;;
35442;SDS011;21561;55.654;37.592;2023-07-24T10:43:39;11.70;;;3.50;;
35442;SDS011;21561;55.654;37.592;2023-07-24T10:46:10;8.93;;;3.50;;
35442;SDS011;21561;55.654;37.592;2023-07-24T10:48:41;12.88;;;3.80;;
35442;SDS011;21561;55.654;37.592;2023-07-24T10:51:09;11.10;;;3.65;;
35442;SDS011;21561;55.654;37.592;2023-07-24T10:53:37;11.38;;;4.05;;
35442;SDS011;21561;55.654;37.592;2023-07-24T10:56:04;12.18;;;3.85;;
35442;SDS011;21561;55.654;37.592;2023-07-24T10:58:33;9.07;;;3.13;;
35442;SDS011;21561;55.654;37.592;2023-07-24T11:01:05;11.27;;;3.88;;
35442;SDS011;21561;55.654;37.592;2023-07-24T11:03:35;11.07;;;3.40;;
35442;SDS011;21561;55.654;37.592;2023-07-24T11:06:04;9.52;;;3.05;;
35442;SDS011;21561;55.654;37.592;2023-07-24T11:08:31;10.98;;;3.60;;
35442;SDS011;21561;55.654;37.592;2023-07-24T11:10:59;7.15;;;2.90;;
35442;SDS011;21561;55.654;37.592;2023-07-24T11:13:28;8.70;;;3.50;;
35442;SDS011;21561;55.654;37.592;2023-07-24T11:15:55;10.85;;;3.70;;
35442;SDS011;21561;55.654;37.592;2023-07-24T11:18:22;10.70;;;3.65;;
35442;SDS011;21561;55.654;37.592;2023-07-24T11:21:11;8.25;;;3.53;;
35442;SDS011;21561;55.654;37.592;2023-07-24T11:23:59;9.80;;;3.92;;
35442;SDS011;21561;55.654;37.592;2023-07-24T11:26:26;9.60;;;3.70;;
35442;SDS011;21561;55.654;37.592;2023-07-24T11:28:53;12.73;;;3.90;;
35442;SDS011;21561;55.654;37.592;2023-07-24T11:31:20;13.07;;;4.32;;
35442;SDS011;21561;55.654;37.592;2023-07-24T11:33:48;11.13;;;4.00;;
35442;SDS011;21561;55.654;37.592;2023-07-24T11:36:17;10.63;;;4.03;;
35442;SDS011;21561;55.654;37.592;2023-07-24T11:38:47;10.75;;;4.05;;
35442;SDS011;21561;55.654;37.592;2023-07-24T11:41:16;12.55;;;4.55;;
35442;SDS011;21561;55.654;37.592;2023-07-24T11:43:45;11.07;;;3.92;;
35442;SDS011;21561;55.654;37.592;2023-07-24T11:46:26;11.23;;;4.15;;
35442;SDS011;21561;55.654;37.592;2023-07-24T11:48:54;12.07;;;4.18;;
35442;SDS011;21561;55.654;37.592;2023-07-24T11:51:25;13.15;;;4.68;;
35442;SDS011;21561;55.654;37.592;2023-07-24T11:54:07;13.90;;;5.13;;
35442;SDS011;21561;55.654;37.592;2023-07-24T11:56:35;14.07;;;5.20;;
35442;SDS011;21561;55.654;37.592;2023-07-24T11:59:09;13.75;;;4.78;;
35442;SDS011;21561;55.654;37.592;2023-07-24T12:01:40;19.25;;;5.75;;
35442;SDS011;21561;55.654;37.592;2023-07-24T12:04:07;16.30;;;6.40;;
35442;SDS011;21561;55.654;37.592;2023-07-24T12:06:35;17.00;;;6.53;;
35442;SDS011;21561;55.654;37.592;2023-07-24T12:09:04;22.58;;;8.23;;
35442;SDS011;21561;55.654;37.592;2023-07-24T12:11:38;22.05;;;7.82;;
35442;SDS011;21561;55.654;37.592;2023-07-24T12:14:07;20.30;;;8.25;;
35442;SDS011;21561;55.654;37.592;2023-07-24T12:16:34;26.02;;;9.38;;
35442;SDS011;21561;55.654;37.592;2023-07-24T12:19:02;18.33;;;7.88;;
35442;SDS011;21561;55.654;37.592;2023-07-24T12:21:32;19.80;;;8.02;;
35442;SDS011;21561;55.654;37.592;2023-07-24T12:24:00;26.17;;;9.00;;
35442;SDS011;21561;55.654;37.592;2023-07-24T12:26:27;23.40;;;10.10;;
35442;SDS011;21561;55.654;37.592;2023-07-24T12:28:54;27.27;;;10.32;;
35442;SDS011;21561;55.654;37.592;2023-07-24T12:31:21;25.92;;;10.65;;
35442;SDS011;21561;55.654;37.592;2023-07-24T12:33:48;22.25;;;9.23;;
35442;SDS011;21561;55.654;37.592;2023-07-24T12:36:15;24.90;;;9.73;;
35442;SDS011;21561;55.654;37.592;2023-07-24T12:38:42;19.10;;;7.90;;
35442;SDS011;21561;55.654;37.592;2023-07-24T12:41:09;29.27;;;14.02;;
35442;SDS011;21561;55.654;37.592;2023-07-24T12:43:36;20.08;;;8.68;;
35442;SDS011;21561;55.654;37.592;2023-07-24T12:46:03;34.20;;;11.32;;
35442;SDS011;21561;55.654;37.592;2023-07-24T12:48:30;20.80;;;9.88;;
35442;SDS011;21561;55.654;37.592;2023-07-24T12:50:58;27.98;;;11.80;;
35442;SDS011;21561;55.654;37.592;2023-07-24T12:53:26;26.83;;;10.35;;
35442;SDS011;21561;55.654;37.592;2023-07-24T12:55:57;29.85;;;12.65;;
35442;SDS011;21561;55.654;37.592;2023-07-24T12:58:24;30.38;;;12.07;;
35442;SDS011;21561;55.654;37.592;2023-07-24T13:00:51;24.52;;;11.10;;
35442;SDS011;21561;55.654;37.592;2023-07-24T13:03:18;27.85;;;11.85;;
35442;SDS011;21561;55.654;37.592;2023-07-24T13:05:45;28.45;;;11.90;;
35442;SDS011;21561;55.654;37.592;2023-07-24T13:08:12;28.92;;;12.45;;
35442;SDS011;21561;55.654;37.592;2023-07-24T13:10:40;27.52;;;12.35;;
35442;SDS011;21561;55.654;37.592;2023-07-24T13:13:07;25.45;;;11.85;;
35442;SDS011;21561;55.654;37.592;2023-07-24T13:15:35;35.15;;;13.68;;
35442;SDS011;21561;55.654;37.592;2023-07-24T13:18:02;22.30;;;10.88;;
35442;SDS011;21561;55.654;37.592;2023-07-24T13:20:49;26.45;;;11.82;;
35442;SDS011;21561;55.654;37.592;2023-07-24T13:23:16;37.22;;;14.18;;
35442;SDS011;21561;55.654;37.592;2023-07-24T13:25:44;27.15;;;11.57;;
35442;SDS011;21561;55.654;37.592;2023-07-24T13:28:11;32.25;;;13.85;;
35442;SDS011;21561;55.654;37.592;2023-07-24T13:30:38;27.45;;;12.85;;
35442;SDS011;21561;55.654;37.592;2023-07-24T13:33:05;33.25;;;14.07;;
35442;SDS011;21561;55.654;37.592;2023-07-24T13:35:32;27.40;;;12.27;;
35442;SDS011;21561;55.654;37.592;2023-07-24T13:37:59;30.98;;;13.02;;
35442;SDS011;21561;55.654;37.592;2023-07-24T13:40:26;28.92;;;13.70;;
35442;SDS011;21561;55.654;37.592;2023-07-24T13:42:53;31.50;;;13.73;;
35442;SDS011;21561;55.654;37.592;2023-07-24T13:45:20;20.80;;;10.23;;
35442;SDS011;21561;55.654;37.592;2023-07-24T13:47:47;20.90;;;9.75;;
35442;SDS011;21561;55.654;37.592;2023-07-24T13:50:14;24.08;;;11.05;;
35442;SDS011;21561;55.654;37.592;2023-07-24T13:52:41;27.83;;;11.23;;
35442;SDS011;21561;55.654;37.592;2023-07-24T13:55:08;19.92;;;9.30;;
35442;SDS011;21561;55.654;37.592;2023-07-24T13:57:34;22.25;;;11.75;;
35442;SDS011;21561;55.654;37.592;2023-07-24T14:00:01;21.92;;;8.82;;
35442;SDS011;21561;55.654;37.592;2023-07-24T14:02:31;16.70;;;7.10;;
35442;SDS011;21561;55.654;37.592;2023-07-24T14:04:58;16.10;;;6.85;;
35442;SDS011;21561;55.654;37.592;2023-07-24T14:07:25;14.80;;;6.47;;
35442;SDS011;21561;55.654;37.592;2023-07-24T14:09:52;17.83;;;6.75;;
35442;SDS011;21561;55.654;37.592;2023-07-24T14:12:19;14.82;;;6.00;;
35442;SDS011;21561;55.654;37.592;2023-07-24T14:14:46;16.90;;;6.68;;
35442;SDS011;21561;55.654;37.592;2023-07-24T14:17:13;14.50;;;5.72;;
35442;SDS011;21561;55.654;37.592;2023-07-24T14:19:41;13.35;;;5.38;;
35442;SDS011;21561;55.654;37.592;2023-07-24T14:22:08;15.93;;;5.32;;
35442;SDS011;21561;55.654;37.592;2023-07-24T14:24:35;12.60;;;4.97;;
35442;SDS011;21561;55.654;37.592;2023-07-24T14:27:02;12.88;;;4.78;;
35442;SDS011;21561;55.654;37.592;2023-07-24T14:29:28;16.95;;;5.43;;
35442;SDS011;21561;55.654;37.592;2023-07-24T14:31:55;14.10;;;5.38;;
35442;SDS011;21561;55.654;37.592;2023-07-24T14:34:22;12.70;;;4.53;;
35442;SDS011;21561;55.654;37.592;2023-07-24T14:36:49;12.65;;;5.10;;